Xunlong5 — BYGW — position and weather

sailwx.info

Track history (hours):
 
Tides and Currents Weather Stations Pressure Air Temp Water Temp Dewpoint Dewpoint Depression Visibility Wind Speed Wind Dir Waves Ship Positions

Xunlong5

Last reported at 2015-Mar-28 09:33 UTC. Time now 2015-Mar-28 11:09 UTC.
Position N 22°12' E 113°34'.

Length 34 m; draft 1.4 m.

Type: High speed craft. MMSI: 413471870.

Date/timePositionNaut miles runAvg speedWind from/ knotsBaromVisibWave heightAir tempDewpointWater temp
2015-Mar-28 09:33N 22°12' E 113°34'0 0.1
2015-Mar-28 06:21N 22°12' E 113°34'2 0.8
2015-Mar-28 03:33N 22°10' E 113°35'6 2.0
2015-Mar-28 00:32N 22°14' E 113°39'6 4.9
2015-Mar-27 23:18N 22°10' E 113°35'0 0.0
2015-Mar-27 21:30N 22°10' E 113°35'0 0.0
2015-Mar-27 20:12N 22°10' E 113°35'0 0.0
2015-Mar-27 19:30N 22°10' E 113°35'0 0.0
2015-Mar-27 18:18N 22°10' E 113°35'0 0.0
2015-Mar-27 17:30N 22°10' E 113°35'0 0.0
2015-Mar-27 16:30N 22°10' E 113°35'0 0.0
2015-Mar-27 15:12N 22°10' E 113°35'0 0.0
2015-Mar-27 13:30N 22°10' E 113°35'0 0.0
2015-Mar-27 12:24N 22°10' E 113°35'2 0.7
2015-Mar-27 09:33N 22°12' E 113°34'1615.4
2015-Mar-27 08:31N 22°25' E 113°43'16 8.1
2015-Mar-27 06:33N 22°12' E 113°34'1817.5
2015-Mar-27 05:31N 22°27' E 113°44'19 9.6
2015-Mar-27 03:33N 22°10' E 113°35'1615.5
2015-Mar-27 02:31N 22°25' E 113°43'11 5.4
2015-Mar-27 00:33N 22°15' E 113°39'6 2.8
2015-Mar-26 22:21N 22°10' E 113°35'28 2.4
2015-Mar-26 10:29N 22°21' E 114°02'4 4.1
2015-Mar-26 09:33N 22°19' E 114°06'1413.4
2015-Mar-26 08:30N 22°29' E 113°55'0 0.0
2015-Mar-26 07:30N 22°29' E 113°55'0 0.0
2015-Mar-26 06:24N 22°29' E 113°55'0 0.1
2015-Mar-26 05:30N 22°29' E 113°54'0 0.1
2015-Mar-26 04:30N 22°29' E 113°55'0 0.0
2015-Mar-26 03:30N 22°29' E 113°55'0 0.0
2015-Mar-26 02:30N 22°29' E 113°55'0 0.0
2015-Mar-26 01:24N 22°29' E 113°55'0 0.0
2015-Mar-26 00:30N 22°29' E 113°55'0 0.0
2015-Mar-25 23:30N 22°29' E 113°55'0 0.1
2015-Mar-25 22:30N 22°29' E 113°54'0 0.1
2015-Mar-25 21:30N 22°29' E 113°55'0 0.0
2015-Mar-25 20:30N 22°29' E 113°55'20 0.6
2015-Mar-24 11:27N 22°15' E 113°39'7 7.4
2015-Mar-24 10:33N 22°10' E 113°35'2 0.7
2015-Mar-24 07:16N 22°12' E 113°34'1520.9
2015-Mar-24 06:32N 22°25' E 113°43'16 7.9
2015-Mar-24 04:33N 22°12' E 113°34'1717.2
2015-Mar-24 03:33N 22°26' E 113°43'12 8.5
2015-Mar-24 02:05N 22°15' E 113°39'6 8.6
2015-Mar-24 01:25N 22°12' E 113°34'2123.2
2015-Mar-24 00:30N 22°30' E 113°45'16 1.2
2015-Mar-23 11:27N 22°15' E 113°39'7 7.5
2015-Mar-23 10:33N 22°10' E 113°35'2323.4
2015-Mar-23 09:33N 22°31' E 113°46'2211.1
2015-Mar-23 07:33N 22°12' E 113°34'2218.5
2015-Mar-23 06:22N 22°30' E 113°46'1612.7
2015-Mar-23 05:05N 22°15' E 113°39'6 7.4
2015-Mar-23 04:17N 22°12' E 113°34'1721.9
2015-Mar-23 03:30N 22°26' E 113°44'12 8.5
2015-Mar-23 02:05N 22°15' E 113°39'6 9.7
2015-Mar-23 01:30N 22°12' E 113°34'2222.9
2015-Mar-23 00:33N 22°31' E 113°46'16 1.3
2015-Mar-22 11:28N 22°15' E 113°39'6 7.0
2015-Mar-22 10:32N 22°10' E 113°35'7 3.0
2015-Mar-22 08:03N 22°16' E 113°39'7 8.8
2015-Mar-22 07:17N 22°12' E 113°34'0 0.0
2015-Mar-22 04:29N 22°12' E 113°34'6 2.7
2015-Mar-22 02:16N 22°16' E 113°39'6 8.5
2015-Mar-22 01:33N 22°12' E 113°34'6 0.4
2015-Mar-21 11:22N 22°15' E 113°39'6 7.9
2015-Mar-21 10:33N 22°10' E 113°35'6 2.7
2015-Mar-21 08:13N 22°15' E 113°39'6 8.8
2015-Mar-21 07:32N 22°12' E 113°33'0 0.1
2015-Mar-21 04:18N 22°12' E 113°34'6 2.7
2015-Mar-21 02:06N 22°15' E 113°39'6 9.8
2015-Mar-21 01:31N 22°12' E 113°34'6 0.4
2015-Mar-20 11:22N 22°15' E 113°39'6 7.9
2015-Mar-20 10:33N 22°10' E 113°35'2524.6
2015-Mar-20 09:33N 22°32' E 113°47'2411.8
2015-Mar-20 07:33N 22°12' E 113°34'1816.5
2015-Mar-20 06:29N 22°27' E 113°44'18 9.0
2015-Mar-20 04:32N 22°12' E 113°34'6 2.3
2015-Mar-20 02:04N 22°15' E 113°39'610.1
2015-Mar-20 01:30N 22°12' E 113°34'6 0.4
2015-Mar-19 12:06N 22°15' E 113°39'6 7.9
2015-Mar-19 11:22N 22°12' E 113°34'6 1.0
2015-Mar-19 05:26N 22°15' E 113°39'0 0.5
2015-Mar-19 04:33N 22°15' E 113°39'6 2.5
2015-Mar-19 02:20N 22°11' E 113°35'1 1.2
2015-Mar-19 01:27N 22°11' E 113°36'1921.1
2015-Mar-19 00:33N 22°23' E 113°51'6 6.1
2015-Mar-18 23:32N 22°29' E 113°55'0 0.0
2015-Mar-18 22:32N 22°29' E 113°55'0 0.0
2015-Mar-18 21:32N 22°29' E 113°55'0 0.1
2015-Mar-18 20:26N 22°29' E 113°54'0 0.1
2015-Mar-18 19:32N 22°29' E 113°55'0 0.0
2015-Mar-18 18:32N 22°29' E 113°55'0 0.0
2015-Mar-18 17:26N 22°29' E 113°55'0 0.0
2015-Mar-18 16:32N 22°29' E 113°55'0 0.0
2015-Mar-18 15:26N 22°29' E 113°55'0 0.0
2015-Mar-18 14:32N 22°29' E 113°55'0 0.0
2015-Mar-18 13:32N 22°29' E 113°55'0 0.0
2015-Mar-18 12:32N 22°29' E 113°55'0 0.0
2015-Mar-18 11:32N 22°29' E 113°55'0 0.0
2015-Mar-18 10:24N 22°29' E 113°55'  
Track history (hours):
 
Tides and Currents Weather Stations Pressure Air Temp Water Temp Dewpoint Dewpoint Depression Visibility Wind Speed Wind Dir Waves Ship Positions

Xunlong5

Last reported at 2015-Mar-28 09:33 UTC. Time now 2015-Mar-28 11:09 UTC.
Position N 22°12' E 113°34'.

Length 34 m; draft 1.4 m.

Type: High speed craft. MMSI: 413471870.

Date/timePositionNaut miles runAvg speedWind from/ knotsBaromVisibWave heightAir tempDewpointWater temp
2015-Mar-28 09:33N 22°12' E 113°34'0 0.1
2015-Mar-28 06:21N 22°12' E 113°34'2 0.8
2015-Mar-28 03:33N 22°10' E 113°35'6 2.0
2015-Mar-28 00:32N 22°14' E 113°39'6 4.9
2015-Mar-27 23:18N 22°10' E 113°35'0 0.0
2015-Mar-27 21:30N 22°10' E 113°35'0 0.0
2015-Mar-27 20:12N 22°10' E 113°35'0 0.0
2015-Mar-27 19:30N 22°10' E 113°35'0 0.0
2015-Mar-27 18:18N 22°10' E 113°35'0 0.0
2015-Mar-27 17:30N 22°10' E 113°35'0 0.0
2015-Mar-27 16:30N 22°10' E 113°35'0 0.0
2015-Mar-27 15:12N 22°10' E 113°35'0 0.0
2015-Mar-27 13:30N 22°10' E 113°35'0 0.0
2015-Mar-27 12:24N 22°10' E 113°35'2 0.7
2015-Mar-27 09:33N 22°12' E 113°34'1615.4
2015-Mar-27 08:31N 22°25' E 113°43'16 8.1
2015-Mar-27 06:33N 22°12' E 113°34'1817.5
2015-Mar-27 05:31N 22°27' E 113°44'19 9.6
2015-Mar-27 03:33N 22°10' E 113°35'1615.5
2015-Mar-27 02:31N 22°25' E 113°43'11 5.4
2015-Mar-27 00:33N 22°15' E 113°39'6 2.8
2015-Mar-26 22:21N 22°10' E 113°35'28 2.4
2015-Mar-26 10:29N 22°21' E 114°02'4 4.1
2015-Mar-26 09:33N 22°19' E 114°06'1413.4
2015-Mar-26 08:30N 22°29' E 113°55'0 0.0
2015-Mar-26 07:30N 22°29' E 113°55'0 0.0
2015-Mar-26 06:24N 22°29' E 113°55'0 0.1
2015-Mar-26 05:30N 22°29' E 113°54'0 0.1
2015-Mar-26 04:30N 22°29' E 113°55'0 0.0
2015-Mar-26 03:30N 22°29' E 113°55'0 0.0
2015-Mar-26 02:30N 22°29' E 113°55'0 0.0
2015-Mar-26 01:24N 22°29' E 113°55'0 0.0
2015-Mar-26 00:30N 22°29' E 113°55'0 0.0
2015-Mar-25 23:30N 22°29' E 113°55'0 0.1
2015-Mar-25 22:30N 22°29' E 113°54'0 0.1
2015-Mar-25 21:30N 22°29' E 113°55'0 0.0
2015-Mar-25 20:30N 22°29' E 113°55'20 0.6
2015-Mar-24 11:27N 22°15' E 113°39'7 7.4
2015-Mar-24 10:33N 22°10' E 113°35'2 0.7
2015-Mar-24 07:16N 22°12' E 113°34'1520.9
2015-Mar-24 06:32N 22°25' E 113°43'16 7.9
2015-Mar-24 04:33N 22°12' E 113°34'1717.2
2015-Mar-24 03:33N 22°26' E 113°43'12 8.5
2015-Mar-24 02:05N 22°15' E 113°39'6 8.6
2015-Mar-24 01:25N 22°12' E 113°34'2123.2
2015-Mar-24 00:30N 22°30' E 113°45'16 1.2
2015-Mar-23 11:27N 22°15' E 113°39'7 7.5
2015-Mar-23 10:33N 22°10' E 113°35'2323.4
2015-Mar-23 09:33N 22°31' E 113°46'2211.1
2015-Mar-23 07:33N 22°12' E 113°34'2218.5
2015-Mar-23 06:22N 22°30' E 113°46'1612.7
2015-Mar-23 05:05N 22°15' E 113°39'6 7.4
2015-Mar-23 04:17N 22°12' E 113°34'1721.9
2015-Mar-23 03:30N 22°26' E 113°44'12 8.5
2015-Mar-23 02:05N 22°15' E 113°39'6 9.7
2015-Mar-23 01:30N 22°12' E 113°34'2222.9
2015-Mar-23 00:33N 22°31' E 113°46'16 1.3
2015-Mar-22 11:28N 22°15' E 113°39'6 7.0
2015-Mar-22 10:32N 22°10' E 113°35'7 3.0
2015-Mar-22 08:03N 22°16' E 113°39'7 8.8
2015-Mar-22 07:17N 22°12' E 113°34'0 0.0
2015-Mar-22 04:29N 22°12' E 113°34'6 2.7
2015-Mar-22 02:16N 22°16' E 113°39'6 8.5
2015-Mar-22 01:33N 22°12' E 113°34'6 0.4
2015-Mar-21 11:22N 22°15' E 113°39'6 7.9
2015-Mar-21 10:33N 22°10' E 113°35'6 2.7
2015-Mar-21 08:13N 22°15' E 113°39'6 8.8
2015-Mar-21 07:32N 22°12' E 113°33'0 0.1
2015-Mar-21 04:18N 22°12' E 113°34'6 2.7
2015-Mar-21 02:06N 22°15' E 113°39'6 9.8
2015-Mar-21 01:31N 22°12' E 113°34'6 0.4
2015-Mar-20 11:22N 22°15' E 113°39'6 7.9
2015-Mar-20 10:33N 22°10' E 113°35'2524.6
2015-Mar-20 09:33N 22°32' E 113°47'2411.8
2015-Mar-20 07:33N 22°12' E 113°34'1816.5
2015-Mar-20 06:29N 22°27' E 113°44'18 9.0
2015-Mar-20 04:32N 22°12' E 113°34'6 2.3
2015-Mar-20 02:04N 22°15' E 113°39'610.1
2015-Mar-20 01:30N 22°12' E 113°34'6 0.4
2015-Mar-19 12:06N 22°15' E 113°39'6 7.9
2015-Mar-19 11:22N 22°12' E 113°34'6 1.0
2015-Mar-19 05:26N 22°15' E 113°39'0 0.5
2015-Mar-19 04:33N 22°15' E 113°39'6 2.5
2015-Mar-19 02:20N 22°11' E 113°35'1 1.2
2015-Mar-19 01:27N 22°11' E 113°36'1921.1
2015-Mar-19 00:33N 22°23' E 113°51'6 6.1
2015-Mar-18 23:32N 22°29' E 113°55'0 0.0
2015-Mar-18 22:32N 22°29' E 113°55'0 0.0
2015-Mar-18 21:32N 22°29' E 113°55'0 0.1
2015-Mar-18 20:26N 22°29' E 113°54'0 0.1
2015-Mar-18 19:32N 22°29' E 113°55'0 0.0
2015-Mar-18 18:32N 22°29' E 113°55'0 0.0
2015-Mar-18 17:26N 22°29' E 113°55'0 0.0
2015-Mar-18 16:32N 22°29' E 113°55'0 0.0
2015-Mar-18 15:26N 22°29' E 113°55'0 0.0
2015-Mar-18 14:32N 22°29' E 113°55'0 0.0
2015-Mar-18 13:32N 22°29' E 113°55'0 0.0
2015-Mar-18 12:32N 22°29' E 113°55'0 0.0
2015-Mar-18 11:32N 22°29' E 113°55'0 0.0
2015-Mar-18 10:24N 22°29' E 113°55'  

Dump ship's entire track history